createdAt,value
2019-05-18T00:01:24.377Z,90.00
2019-05-18T00:03:52.918Z,90.00
2019-05-18T00:06:21.502Z,89.90
2019-05-18T00:08:50.115Z,89.80
2019-05-18T00:11:18.689Z,89.80
2019-05-18T00:13:47.276Z,89.50
2019-05-18T00:16:15.857Z,89.40
2019-05-18T00:18:44.522Z,89.20
2019-05-18T00:21:13.066Z,89.10
2019-05-18T00:23:42.020Z,89.00
2019-05-18T00:26:10.601Z,88.80
2019-05-18T00:28:39.179Z,88.80
2019-05-18T00:31:07.794Z,88.80
2019-05-18T00:33:36.339Z,88.90
2019-05-18T00:36:05.456Z,89.10
2019-05-18T00:38:33.973Z,89.00
2019-05-18T00:41:02.815Z,89.00
2019-05-18T00:43:31.391Z,89.10
2019-05-18T00:45:59.985Z,88.90
2019-05-18T00:48:28.490Z,89.40
2019-05-18T00:50:57.035Z,89.70
2019-05-18T00:53:25.671Z,89.80
2019-05-18T00:55:54.220Z,89.80
2019-05-18T00:58:22.734Z,90.00
2019-05-18T01:00:51.389Z,90.00
2019-05-18T01:03:19.940Z,90.00
2019-05-18T01:05:48.611Z,90.00
2019-05-18T01:08:17.196Z,90.00
2019-05-18T01:10:45.875Z,90.00
2019-05-18T01:13:14.404Z,90.00
2019-05-18T01:15:42.947Z,90.10
2019-05-18T01:18:11.490Z,90.00
2019-05-18T01:20:40.238Z,90.00
2019-05-18T01:23:09.386Z,90.10
2019-05-18T01:25:37.924Z,90.10
2019-05-18T01:28:06.438Z,90.10
2019-05-18T01:30:35.013Z,90.20
2019-05-18T01:33:04.658Z,90.30
2019-05-18T01:35:33.233Z,90.30
2019-05-18T01:38:01.956Z,90.30
2019-05-18T01:40:30.456Z,90.40
2019-05-18T01:42:58.968Z,90.40
2019-05-18T01:45:27.551Z,90.60
2019-05-18T01:47:56.095Z,90.60
2019-05-18T01:50:24.609Z,90.60
2019-05-18T01:52:53.215Z,90.70
2019-05-18T01:55:21.761Z,90.60
2019-05-18T01:57:50.342Z,90.60
2019-05-18T02:00:19.817Z,90.70
2019-05-18T02:02:48.338Z,90.60
2019-05-18T02:05:16.946Z,90.60
2019-05-18T02:07:46.185Z,90.60
2019-05-18T02:10:14.857Z,90.40
2019-05-18T02:12:43.437Z,90.40
2019-05-18T02:15:14.120Z,90.30
2019-05-18T02:17:42.708Z,90.30
2019-05-18T02:20:11.918Z,90.70
2019-05-18T02:22:40.503Z,90.30
2019-05-18T02:25:09.417Z,90.30
2019-05-18T02:27:37.946Z,90.30
2019-05-18T02:30:16.744Z,90.30
2019-05-18T02:32:41.850Z,90.30
2019-05-18T02:35:10.588Z,90.30
2019-05-18T02:37:39.195Z,90.40
2019-05-18T02:40:09.000Z,90.30
2019-05-18T02:42:37.543Z,90.40
2019-05-18T02:45:09.946Z,90.50
2019-05-18T02:47:38.478Z,90.50
2019-05-18T02:50:08.779Z,90.50
2019-05-18T02:52:37.322Z,90.50
2019-05-18T02:55:07.127Z,90.70
2019-05-18T02:57:35.655Z,90.70
2019-05-18T03:00:07.241Z,91.00
2019-05-18T03:02:35.984Z,91.10
2019-05-18T03:05:06.763Z,91.30
2019-05-18T03:07:35.447Z,91.50
2019-05-18T03:10:06.660Z,91.60
2019-05-18T03:12:35.655Z,92.00
2019-05-18T03:15:06.215Z,91.90
2019-05-18T03:17:34.813Z,91.80
2019-05-18T03:20:04.447Z,91.80
2019-05-18T03:22:32.960Z,91.80
2019-05-18T03:25:01.537Z,91.60
2019-05-18T03:27:30.115Z,91.60
2019-05-18T03:29:58.644Z,91.30
2019-05-18T03:32:27.117Z,91.10
2019-05-18T03:34:55.778Z,91.10
2019-05-18T03:37:24.395Z,90.90
2019-05-18T03:39:52.968Z,90.80
2019-05-18T03:42:21.477Z,90.70
2019-05-18T03:44:50.568Z,90.60
2019-05-18T03:47:19.080Z,90.70
2019-05-18T03:49:47.644Z,90.90
2019-05-18T03:52:16.282Z,91.00
2019-05-18T03:54:44.825Z,91.20
2019-05-18T03:57:13.305Z,91.10
2019-05-18T03:59:41.870Z,91.30
2019-05-18T04:02:10.411Z,91.50
2019-05-18T04:04:38.992Z,92.20
2019-05-18T04:07:07.739Z,92.20
2019-05-18T04:09:36.269Z,92.10
2019-05-18T04:12:04.815Z,91.90
2019-05-18T04:14:33.310Z,91.60
2019-05-18T04:17:01.812Z,91.30
2019-05-18T04:19:45.422Z,91.40
2019-05-18T04:22:00.603Z,91.40
2019-05-18T04:24:29.282Z,91.20
2019-05-18T04:26:57.871Z,91.20
2019-05-18T04:29:26.428Z,91.20
2019-05-18T04:31:54.956Z,90.90
2019-05-18T04:34:23.428Z,90.80
2019-05-18T04:36:51.924Z,90.80
2019-05-18T04:39:20.505Z,91.10
2019-05-18T04:41:49.077Z,91.40
2019-05-18T04:44:17.688Z,91.50
2019-05-18T04:46:46.252Z,91.50
2019-05-18T04:49:14.830Z,91.60
2019-05-18T04:51:43.403Z,91.50
2019-05-18T04:54:11.908Z,91.70
2019-05-18T04:56:42.866Z,91.60
2019-05-18T04:59:10.696Z,91.80
2019-05-18T05:01:39.362Z,92.00
2019-05-18T05:04:07.863Z,92.50
2019-05-18T05:06:36.720Z,93.80
2019-05-18T05:09:07.507Z,94.70
2019-05-18T05:11:36.081Z,95.30
2019-05-18T05:14:05.061Z,95.70
2019-05-18T05:16:33.637Z,96.20
2019-05-18T05:19:02.229Z,97.20
2019-05-18T05:21:31.366Z,97.70
2019-05-18T05:23:59.937Z,98.40
2019-05-18T05:26:28.560Z,98.50
2019-05-18T05:28:57.052Z,98.50
2019-05-18T05:31:25.514Z,98.80
2019-05-18T05:33:53.991Z,99.20
2019-05-18T05:36:22.578Z,98.90
2019-05-18T05:38:51.157Z,98.50
2019-05-18T05:41:19.822Z,98.90
2019-05-18T05:43:48.825Z,99.00
2019-05-18T05:46:17.405Z,99.20
2019-05-18T05:48:45.931Z,99.40
2019-05-18T05:51:14.510Z,99.60
2019-05-18T05:53:43.174Z,99.80
2019-05-18T05:56:11.753Z,99.70
2019-05-18T05:58:40.396Z,99.80
2019-05-18T06:01:08.867Z,99.80
2019-05-18T06:03:37.378Z,99.80
2019-05-18T06:06:05.984Z,99.80
2019-05-18T06:08:34.570Z,99.60
2019-05-18T06:11:03.138Z,99.50
2019-05-18T06:13:31.710Z,99.40
2019-05-18T06:16:00.232Z,99.00
2019-05-18T06:18:28.763Z,99.00
2019-05-18T06:20:57.289Z,98.80
2019-05-18T06:23:25.827Z,98.80
2019-05-18T06:25:54.349Z,99.10
2019-05-18T06:28:22.881Z,99.00
2019-05-18T06:30:51.411Z,99.10
2019-05-18T06:33:19.884Z,98.40
2019-05-18T06:35:48.471Z,97.80
2019-05-18T06:38:17.047Z,98.20
2019-05-18T06:40:45.630Z,98.30
2019-05-18T06:43:14.267Z,98.40
2019-05-18T06:45:42.828Z,97.80
2019-05-18T06:48:11.366Z,97.60
2019-05-18T06:50:39.966Z,97.20
2019-05-18T06:53:08.545Z,97.00
2019-05-18T06:55:37.731Z,97.00
2019-05-18T06:58:07.364Z,96.80
2019-05-18T07:00:35.896Z,97.10
2019-05-18T07:03:05.436Z,96.50
2019-05-18T07:05:34.296Z,96.70
2019-05-18T07:08:02.812Z,95.90
2019-05-18T07:10:31.676Z,95.90
2019-05-18T07:13:00.297Z,96.10
2019-05-18T07:15:28.826Z,95.90
2019-05-18T07:17:57.294Z,95.50
2019-05-18T07:20:25.854Z,95.70
2019-05-18T07:22:54.429Z,95.50
2019-05-18T07:25:22.958Z,95.50
2019-05-18T07:27:51.532Z,94.90
2019-05-18T07:30:20.067Z,95.20
2019-05-18T07:32:48.538Z,95.50
2019-05-18T07:35:17.724Z,95.50
2019-05-18T07:37:46.291Z,95.50
2019-05-18T07:40:15.037Z,94.50
2019-05-18T07:42:43.638Z,94.00
2019-05-18T07:45:13.614Z,93.90
2019-05-18T07:47:42.118Z,93.60
2019-05-18T07:50:12.215Z,93.70
2019-05-18T07:52:40.791Z,93.90
2019-05-18T07:55:09.372Z,94.30
2019-05-18T07:57:37.964Z,94.50
2019-05-18T08:00:07.834Z,94.70
2019-05-18T08:02:36.384Z,94.00
2019-05-18T08:05:08.910Z,93.70
2019-05-18T08:07:37.480Z,93.50
2019-05-18T08:10:08.724Z,92.10
2019-05-18T08:12:37.214Z,91.50
2019-05-18T08:15:08.287Z,92.00
2019-05-18T08:17:36.903Z,86.40
2019-05-18T08:20:07.526Z,83.00
2019-05-18T08:22:36.025Z,77.80
2019-05-18T08:25:07.586Z,73.40
2019-05-18T08:27:36.469Z,72.50
2019-05-18T08:30:08.532Z,71.90
2019-05-18T08:32:37.139Z,73.00
2019-05-18T08:35:06.660Z,66.60
2019-05-18T08:37:35.318Z,67.70
2019-05-18T08:40:06.084Z,64.10
2019-05-18T08:42:34.661Z,66.00
2019-05-18T08:45:04.976Z,66.00
2019-05-18T08:47:33.526Z,66.20
2019-05-18T08:50:02.099Z,69.40
2019-05-18T08:52:30.568Z,72.60
2019-05-18T08:54:59.065Z,73.00
2019-05-18T08:57:27.666Z,77.40
2019-05-18T08:59:56.259Z,75.90
2019-05-18T09:02:25.639Z,74.40
2019-05-18T09:04:54.155Z,75.70
2019-05-18T09:07:22.765Z,76.60
2019-05-18T09:09:51.265Z,75.60
2019-05-18T09:12:20.000Z,75.10
2019-05-18T09:14:48.551Z,76.80
2019-05-18T09:17:17.130Z,76.70
2019-05-18T09:19:45.693Z,76.90
2019-05-18T09:22:22.904Z,75.50
2019-05-18T09:24:44.520Z,74.50
2019-05-18T09:27:13.137Z,72.90
2019-05-18T09:29:41.671Z,69.00
2019-05-18T09:32:10.207Z,65.40
2019-05-18T09:34:38.913Z,64.80
2019-05-18T09:37:07.468Z,66.50
2019-05-18T09:39:36.029Z,60.40
2019-05-18T09:42:05.472Z,59.10
2019-05-18T09:44:34.020Z,59.60
2019-05-18T09:47:02.622Z,60.00
2019-05-18T09:49:31.383Z,59.20
2019-05-18T09:51:59.838Z,58.20
2019-05-18T09:54:28.296Z,53.70
2019-05-18T09:56:56.820Z,52.70
2019-05-18T09:59:25.472Z,50.70
2019-05-18T10:01:54.062Z,51.50
2019-05-18T10:04:22.635Z,55.40
2019-05-18T10:06:51.163Z,56.70
2019-05-18T10:09:19.630Z,55.10
2019-05-18T10:11:48.244Z,53.40
2019-05-18T10:14:16.764Z,51.70
2019-05-18T10:16:45.252Z,47.50
2019-05-18T10:19:13.845Z,47.20
2019-05-18T10:21:42.417Z,50.10
2019-05-18T10:24:10.981Z,49.40
2019-05-18T10:26:39.567Z,52.50
2019-05-18T10:29:08.053Z,53.70
2019-05-18T10:31:36.586Z,52.30
2019-05-18T10:34:05.394Z,54.60
2019-05-18T10:36:33.914Z,53.30
2019-05-18T10:39:02.423Z,54.10
2019-05-18T10:41:30.904Z,53.20
2019-05-18T10:43:59.409Z,54.80
2019-05-18T10:46:27.974Z,53.90
2019-05-18T10:48:56.582Z,52.00
2019-05-18T10:51:25.124Z,49.40
2019-05-18T10:53:53.648Z,47.50
2019-05-18T10:56:22.191Z,47.80
2019-05-18T10:58:50.674Z,47.20
2019-05-18T11:01:19.498Z,48.20
2019-05-18T11:03:50.169Z,47.40
2019-05-18T11:06:18.788Z,45.30
2019-05-18T11:08:47.321Z,46.60
2019-05-18T11:11:15.973Z,50.20
2019-05-18T11:13:44.503Z,49.40
2019-05-18T11:16:12.998Z,49.00
2019-05-18T11:18:43.720Z,48.10
2019-05-18T11:21:12.179Z,45.50
2019-05-18T11:23:44.176Z,45.20
2019-05-18T11:26:10.902Z,44.20
2019-05-18T11:28:39.533Z,43.60
2019-05-18T11:31:08.104Z,44.70
2019-05-18T11:33:36.835Z,43.00
2019-05-18T11:36:05.390Z,42.80
2019-05-18T11:38:33.937Z,40.70
2019-05-18T11:41:02.907Z,41.40
2019-05-18T11:43:31.452Z,41.90
2019-05-18T11:45:59.927Z,40.20
2019-05-18T11:48:28.501Z,46.70
2019-05-18T11:50:57.051Z,50.00
2019-05-18T11:53:25.686Z,49.80
2019-05-18T11:55:54.279Z,49.50
2019-05-18T11:58:22.850Z,47.60
2019-05-18T12:00:51.487Z,47.00
2019-05-18T12:03:20.096Z,45.90
2019-05-18T12:05:48.653Z,42.50
2019-05-18T12:08:17.193Z,41.40
2019-05-18T12:10:45.694Z,41.60
2019-05-18T12:13:14.196Z,42.80
2019-05-18T12:15:42.738Z,44.60
2019-05-18T12:18:11.316Z,42.40
2019-05-18T12:20:39.892Z,42.90
2019-05-18T12:23:09.064Z,43.00
2019-05-18T12:25:37.805Z,42.60
2019-05-18T12:28:06.376Z,43.60
2019-05-18T12:30:34.934Z,44.10
2019-05-18T12:33:05.291Z,44.60
2019-05-18T12:35:33.823Z,44.80
2019-05-18T12:38:02.352Z,47.20
2019-05-18T12:40:30.908Z,49.50
2019-05-18T12:42:59.400Z,51.10
2019-05-18T12:45:28.407Z,56.20
2019-05-18T12:47:57.009Z,60.40
2019-05-18T12:50:27.536Z,64.90
2019-05-18T12:52:56.121Z,68.30
2019-05-18T12:55:25.129Z,71.10
2019-05-18T12:57:53.632Z,71.70
2019-05-18T13:00:22.837Z,72.90
2019-05-18T13:02:51.427Z,75.80
2019-05-18T13:05:20.354Z,75.10
2019-05-18T13:07:48.899Z,78.10
2019-05-18T13:10:18.856Z,78.10
2019-05-18T13:12:47.403Z,81.00
2019-05-18T13:15:17.756Z,84.80
2019-05-18T13:17:46.356Z,86.30
2019-05-18T13:20:15.744Z,84.90
2019-05-18T13:22:44.279Z,85.90
2019-05-18T13:25:14.964Z,88.60
2019-05-18T13:27:43.440Z,90.00
2019-05-18T13:30:14.174Z,90.40
2019-05-18T13:32:42.745Z,90.80
2019-05-18T13:35:12.477Z,90.80
2019-05-18T13:37:41.039Z,90.60
2019-05-18T13:40:10.768Z,90.70
2019-05-18T13:42:39.409Z,89.60
2019-05-18T13:45:09.981Z,90.60
2019-05-18T13:47:38.517Z,89.70
2019-05-18T13:50:07.907Z,89.90
2019-05-18T13:52:36.479Z,90.00
2019-05-18T13:55:07.349Z,89.50
2019-05-18T13:57:36.267Z,88.50
2019-05-18T14:00:09.118Z,88.50
2019-05-18T14:02:37.864Z,88.30
2019-05-18T14:05:07.457Z,89.30
2019-05-18T14:07:36.031Z,89.80
2019-05-18T14:10:12.227Z,88.60
2019-05-18T14:12:39.477Z,89.80
2019-05-18T14:15:09.223Z,90.00
2019-05-18T14:17:37.851Z,90.20
2019-05-18T14:20:07.801Z,90.80
2019-05-18T14:22:36.406Z,90.10
2019-05-18T14:25:18.795Z,89.60
2019-05-18T14:27:39.730Z,89.80
2019-05-18T14:30:09.137Z,89.10
2019-05-18T14:32:37.714Z,89.00
2019-05-18T14:35:07.720Z,83.90
2019-05-18T14:37:36.261Z,83.00
2019-05-18T14:40:07.077Z,82.40
2019-05-18T14:42:35.584Z,86.00
2019-05-18T14:45:06.465Z,84.10
2019-05-18T14:47:34.997Z,84.80
2019-05-18T14:50:04.506Z,79.00
2019-05-18T14:52:33.098Z,79.10
2019-05-18T14:55:01.698Z,82.50
2019-05-18T14:57:30.305Z,86.90
2019-05-18T15:00:02.173Z,86.30
2019-05-18T15:02:29.079Z,85.30
2019-05-18T15:04:57.547Z,80.90
2019-05-18T15:07:26.081Z,78.50
2019-05-18T15:09:54.688Z,80.40
2019-05-18T15:12:23.231Z,77.00
2019-05-18T15:14:51.695Z,78.10
2019-05-18T15:17:20.298Z,77.20
2019-05-18T15:19:48.928Z,75.40
2019-05-18T15:22:17.506Z,74.70
2019-05-18T15:24:46.082Z,75.00
2019-05-18T15:27:14.636Z,76.10
2019-05-18T15:29:43.212Z,79.10
2019-05-18T15:32:11.771Z,80.80
2019-05-18T15:34:40.429Z,79.00
2019-05-18T15:37:09.055Z,78.90
2019-05-18T15:39:38.020Z,79.70
2019-05-18T15:42:06.673Z,80.30
2019-05-18T15:44:35.382Z,80.70
2019-05-18T15:47:04.196Z,81.00
2019-05-18T15:49:32.736Z,81.00
2019-05-18T15:52:01.313Z,80.90
2019-05-18T15:54:29.914Z,80.90
2019-05-18T15:56:58.414Z,81.60
2019-05-18T15:59:26.969Z,80.70
2019-05-18T16:01:55.483Z,79.80
2019-05-18T16:04:24.043Z,76.20
2019-05-18T16:06:52.587Z,77.10
2019-05-18T16:09:21.152Z,77.40
2019-05-18T16:11:49.756Z,78.50
2019-05-18T16:14:18.374Z,80.00
2019-05-18T16:16:47.061Z,81.70
2019-05-18T16:19:16.122Z,81.70
2019-05-18T16:21:44.668Z,83.40
2019-05-18T16:24:13.176Z,83.30
2019-05-18T16:26:41.721Z,83.80
2019-05-18T16:29:10.216Z,83.10
2019-05-18T16:31:38.881Z,83.80
2019-05-18T16:34:07.415Z,84.80
2019-05-18T16:36:35.919Z,85.10
2019-05-18T16:39:06.895Z,85.70
2019-05-18T16:41:35.401Z,86.20
2019-05-18T16:44:04.606Z,85.40
2019-05-18T16:46:33.191Z,86.10
2019-05-18T16:49:01.696Z,86.80
2019-05-18T16:51:30.215Z,86.90
2019-05-18T16:53:59.584Z,86.60
2019-05-18T16:56:34.949Z,88.40
2019-05-18T16:58:58.349Z,88.20
2019-05-18T17:01:26.958Z,88.70
2019-05-18T17:03:55.495Z,90.00
2019-05-18T17:06:25.605Z,91.10
2019-05-18T17:08:54.555Z,92.90
2019-05-18T17:11:23.182Z,93.40
2019-05-18T17:13:51.752Z,93.50
2019-05-18T17:16:20.737Z,93.30
2019-05-18T17:18:49.264Z,94.20
2019-05-18T17:21:17.731Z,94.60
2019-05-18T17:23:46.342Z,94.80
2019-05-18T17:26:14.914Z,94.60
2019-05-18T17:28:43.725Z,94.90
2019-05-18T17:31:12.282Z,94.80
2019-05-18T17:33:40.858Z,95.20
2019-05-18T17:36:09.426Z,95.10
2019-05-18T17:38:38.076Z,95.00
2019-05-18T17:41:06.853Z,95.40
2019-05-18T17:43:35.461Z,95.10
2019-05-18T17:46:04.140Z,95.00
2019-05-18T17:48:32.697Z,95.10
2019-05-18T17:51:01.269Z,95.20
2019-05-18T17:53:29.934Z,94.90
2019-05-18T17:55:58.484Z,94.90
2019-05-18T17:58:26.990Z,94.80
2019-05-18T18:00:55.704Z,94.90
2019-05-18T18:03:24.266Z,94.90
2019-05-18T18:05:52.740Z,95.10
2019-05-18T18:08:21.320Z,95.30
2019-05-18T18:10:49.903Z,95.30
2019-05-18T18:13:18.436Z,95.50
2019-05-18T18:15:46.939Z,95.30
2019-05-18T18:18:15.411Z,95.20
2019-05-18T18:20:44.054Z,95.20
2019-05-18T18:23:12.706Z,95.20
2019-05-18T18:25:41.279Z,95.00
2019-05-18T18:28:09.892Z,95.30
2019-05-18T18:30:38.455Z,95.60
2019-05-18T18:33:07.012Z,95.60
2019-05-18T18:35:35.584Z,95.70
2019-05-18T18:38:04.163Z,95.60
2019-05-18T18:40:32.626Z,95.50
2019-05-18T18:43:01.130Z,95.50
2019-05-18T18:45:30.234Z,95.30
2019-05-18T18:47:58.749Z,95.30
2019-05-18T18:50:27.358Z,95.30
2019-05-18T18:52:55.887Z,95.10
2019-05-18T18:55:24.472Z,95.10
2019-05-18T18:57:53.003Z,95.10
2019-05-18T19:00:21.668Z,95.20
2019-05-18T19:02:50.227Z,95.30
2019-05-18T19:05:19.108Z,95.20
2019-05-18T19:07:47.684Z,95.40
2019-05-18T19:10:17.434Z,95.50
2019-05-18T19:12:46.012Z,95.50
2019-05-18T19:15:15.120Z,95.30
2019-05-18T19:17:43.587Z,95.40
2019-05-18T19:20:12.858Z,95.30
2019-05-18T19:22:41.411Z,95.30
2019-05-18T19:25:11.681Z,95.20
2019-05-18T19:27:52.728Z,95.40
2019-05-18T19:30:11.239Z,95.70
2019-05-18T19:32:39.829Z,95.60
2019-05-18T19:35:09.523Z,95.30
2019-05-18T19:37:38.452Z,95.30
2019-05-18T19:40:07.568Z,95.30
2019-05-18T19:42:36.195Z,95.20
2019-05-18T19:45:09.882Z,95.00
2019-05-18T19:47:38.410Z,95.10
2019-05-18T19:50:08.757Z,95.00
2019-05-18T19:52:37.360Z,94.90
2019-05-18T19:55:09.404Z,94.90
2019-05-18T19:57:38.092Z,95.00
2019-05-18T20:00:07.469Z,94.90
2019-05-18T20:02:36.107Z,95.00
2019-05-18T20:05:08.943Z,95.10
2019-05-18T20:07:37.680Z,95.20
2019-05-18T20:10:08.375Z,95.30
2019-05-18T20:12:36.927Z,95.30
2019-05-18T20:15:09.541Z,95.30
2019-05-18T20:17:37.793Z,95.40
2019-05-18T20:20:09.110Z,95.30
2019-05-18T20:22:37.844Z,95.00
2019-05-18T20:25:08.144Z,94.60
2019-05-18T20:27:36.745Z,94.50
2019-05-18T20:30:10.584Z,94.30
2019-05-18T20:32:40.913Z,94.20
2019-05-18T20:35:09.956Z,94.30
2019-05-18T20:37:38.503Z,94.20
2019-05-18T20:40:07.657Z,94.10
2019-05-18T20:42:37.665Z,94.10
2019-05-18T20:45:07.189Z,94.10
2019-05-18T20:47:35.771Z,94.00
2019-05-18T20:50:05.778Z,93.90
2019-05-18T20:52:34.332Z,94.10
2019-05-18T20:55:02.872Z,94.00
2019-05-18T20:57:31.504Z,94.10
2019-05-18T21:00:00.117Z,94.10
2019-05-18T21:02:28.660Z,94.20
2019-05-18T21:04:57.370Z,94.40
2019-05-18T21:07:25.968Z,94.40
2019-05-18T21:09:54.519Z,94.50
2019-05-18T21:12:23.123Z,94.60
2019-05-18T21:14:51.708Z,94.80
2019-05-18T21:17:20.280Z,94.80
2019-05-18T21:19:48.983Z,94.80
2019-05-18T21:22:17.527Z,94.70
2019-05-18T21:24:46.098Z,94.80
2019-05-18T21:27:14.676Z,94.80
2019-05-18T21:29:43.340Z,94.80
2019-05-18T21:32:11.917Z,94.90
2019-05-18T21:34:40.450Z,94.80
2019-05-18T21:37:08.977Z,94.80
2019-05-18T21:39:37.955Z,94.90
2019-05-18T21:42:06.457Z,94.90
2019-05-18T21:44:35.263Z,95.00
2019-05-18T21:47:04.304Z,95.20
2019-05-18T21:49:32.873Z,95.30
2019-05-18T21:52:01.540Z,95.40
2019-05-18T21:54:30.087Z,95.40
2019-05-18T21:56:58.698Z,95.40
2019-05-18T21:59:27.470Z,95.40
2019-05-18T22:01:56.203Z,95.50
2019-05-18T22:04:24.839Z,95.50
2019-05-18T22:06:53.845Z,95.30
2019-05-18T22:09:22.485Z,95.20
2019-05-18T22:11:51.077Z,95.20
2019-05-18T22:14:19.629Z,95.30
2019-05-18T22:16:48.281Z,95.40
2019-05-18T22:19:16.819Z,95.40
2019-05-18T22:21:45.352Z,95.40
2019-05-18T22:24:14.215Z,95.50
2019-05-18T22:26:42.765Z,95.80
2019-05-18T22:29:11.375Z,95.80
2019-05-18T22:31:39.911Z,95.80
2019-05-18T22:34:08.451Z,96.00
2019-05-18T22:36:37.002Z,96.10
2019-05-18T22:39:08.630Z,96.10
2019-05-18T22:41:37.161Z,96.10
2019-05-18T22:44:05.828Z,96.10
2019-05-18T22:46:34.368Z,96.10
2019-05-18T22:49:02.875Z,96.00
2019-05-18T22:51:31.515Z,95.90
2019-05-18T22:54:00.092Z,95.70
2019-05-18T22:56:28.663Z,95.90
2019-05-18T22:58:57.260Z,95.80
2019-05-18T23:01:25.808Z,95.80
2019-05-18T23:03:54.452Z,95.80
2019-05-18T23:06:23.053Z,95.90
2019-05-18T23:08:51.626Z,96.10
2019-05-18T23:11:20.185Z,96.20
2019-05-18T23:13:48.824Z,96.30
2019-05-18T23:16:17.339Z,96.40
2019-05-18T23:18:56.540Z,96.40
2019-05-18T23:21:16.042Z,96.70
2019-05-18T23:23:44.519Z,96.30
2019-05-18T23:26:13.026Z,96.30
2019-05-18T23:28:41.599Z,96.30
2019-05-18T23:31:10.055Z,96.40
2019-05-18T23:33:38.556Z,96.40
2019-05-18T23:36:07.127Z,96.50
2019-05-18T23:38:35.602Z,96.50
2019-05-18T23:41:04.178Z,96.70
2019-05-18T23:43:33.213Z,96.80
2019-05-18T23:46:01.780Z,96.80
2019-05-18T23:48:30.349Z,96.70
2019-05-18T23:50:58.930Z,96.50
2019-05-18T23:53:27.542Z,96.50
2019-05-18T23:55:56.003Z,96.40
2019-05-18T23:58:24.499Z,96.40
